sensor_id;sensor_type;location;lat;lon;timestamp;pressure;altitude;pressure_sealevel;temperature;humidity
10348;BME280;5220;43.192;23.284;2022-09-23T00:01:52;97267.50;;;10.67;66.72
10348;BME280;5220;43.192;23.284;2022-09-23T00:04:20;97270.09;;;10.67;67.12
10348;BME280;5220;43.192;23.284;2022-09-23T00:06:47;97260.94;;;10.61;66.92
10348;BME280;5220;43.192;23.284;2022-09-23T00:09:14;97261.16;;;10.58;67.95
10348;BME280;5220;43.192;23.284;2022-09-23T00:11:40;97260.31;;;10.58;67.38
10348;BME280;5220;43.192;23.284;2022-09-23T00:14:29;97253.84;;;10.63;66.75
10348;BME280;5220;43.192;23.284;2022-09-23T00:16:56;97254.06;;;10.60;66.04
10348;BME280;5220;43.192;23.284;2022-09-23T00:19:24;97254.56;;;10.65;66.21
10348;BME280;5220;43.192;23.284;2022-09-23T00:21:50;97258.00;;;10.78;65.86
10348;BME280;5220;43.192;23.284;2022-09-23T00:24:17;97249.56;;;10.88;66.70
10348;BME280;5220;43.192;23.284;2022-09-23T00:26:44;97251.66;;;10.95;66.31
10348;BME280;5220;43.192;23.284;2022-09-23T00:29:11;97250.59;;;10.98;66.43
10348;BME280;5220;43.192;23.284;2022-09-23T00:31:38;97247.66;;;11.02;66.62
10348;BME280;5220;43.192;23.284;2022-09-23T00:34:04;97243.19;;;11.04;66.63
10348;BME280;5220;43.192;23.284;2022-09-23T00:36:33;97242.44;;;11.02;66.44
10348;BME280;5220;43.192;23.284;2022-09-23T00:38:59;97247.44;;;11.05;65.66
10348;BME280;5220;43.192;23.284;2022-09-23T00:41:27;97240.59;;;11.04;65.55
10348;BME280;5220;43.192;23.284;2022-09-23T00:47:18;97241.63;;;11.02;66.31
10348;BME280;5220;43.192;23.284;2022-09-23T00:49:49;97240.59;;;11.04;66.27
10348;BME280;5220;43.192;23.284;2022-09-23T00:52:22;97239.38;;;10.85;65.42
10348;BME280;5220;43.192;23.284;2022-09-23T00:54:51;97228.44;;;10.79;65.42
10348;BME280;5220;43.192;23.284;2022-09-23T00:57:21;97230.72;;;10.84;65.99
10348;BME280;5220;43.192;23.284;2022-09-23T00:59:49;97234.88;;;10.87;65.47
10348;BME280;5220;43.192;23.284;2022-09-23T01:02:17;97241.88;;;10.73;65.62
10348;BME280;5220;43.192;23.284;2022-09-23T01:08:18;97228.94;;;10.85;65.12
10348;BME280;5220;43.192;23.284;2022-09-23T01:10:55;97237.91;;;10.80;65.74
10348;BME280;5220;43.192;23.284;2022-09-23T01:13:28;97238.66;;;10.70;65.79
10348;BME280;5220;43.192;23.284;2022-09-23T01:16:04;97241.47;;;10.54;65.40
10348;BME280;5220;43.192;23.284;2022-09-23T01:18:37;97244.38;;;10.62;66.02
10348;BME280;5220;43.192;23.284;2022-09-23T01:21:16;97246.34;;;10.59;65.38
10348;BME280;5220;43.192;23.284;2022-09-23T01:24:13;97236.91;;;10.58;66.73
10348;BME280;5220;43.192;23.284;2022-09-23T01:26:54;97236.34;;;10.65;65.72
10348;BME280;5220;43.192;23.284;2022-09-23T01:29:51;97238.97;;;10.65;66.52
10348;BME280;5220;43.192;23.284;2022-09-23T01:32:33;97232.84;;;10.54;66.67
10348;BME280;5220;43.192;23.284;2022-09-23T01:35:20;97238.56;;;10.46;66.93
10348;BME280;5220;43.192;23.284;2022-09-23T01:37:53;97232.22;;;10.50;67.00
10348;BME280;5220;43.192;23.284;2022-09-23T01:40:26;97230.66;;;10.35;66.65
10348;BME280;5220;43.192;23.284;2022-09-23T01:43:01;97221.59;;;10.41;66.91
10348;BME280;5220;43.192;23.284;2022-09-23T01:45:34;97225.66;;;10.45;67.01
10348;BME280;5220;43.192;23.284;2022-09-23T01:48:07;97230.34;;;10.27;67.00
10348;BME280;5220;43.192;23.284;2022-09-23T01:50:40;97225.59;;;10.07;67.25
10348;BME280;5220;43.192;23.284;2022-09-23T01:53:27;97227.78;;;10.00;68.35
10348;BME280;5220;43.192;23.284;2022-09-23T01:56:01;97224.34;;;10.00;67.92
10348;BME280;5220;43.192;23.284;2022-09-23T01:58:34;97224.47;;;9.98;67.88
10348;BME280;5220;43.192;23.284;2022-09-23T02:01:05;97222.28;;;10.05;68.08
10348;BME280;5220;43.192;23.284;2022-09-23T02:03:36;97225.41;;;10.10;67.36
10348;BME280;5220;43.192;23.284;2022-09-23T02:06:08;97217.81;;;10.07;67.36
10348;BME280;5220;43.192;23.284;2022-09-23T02:08:41;97219.41;;;10.22;67.46
10348;BME280;5220;43.192;23.284;2022-09-23T02:11:10;97220.25;;;10.22;67.40
10348;BME280;5220;43.192;23.284;2022-09-23T02:13:48;97228.00;;;10.10;68.27
10348;BME280;5220;43.192;23.284;2022-09-23T02:16:24;97229.75;;;10.09;68.80
10348;BME280;5220;43.192;23.284;2022-09-23T02:18:56;97234.28;;;10.20;69.25
10348;BME280;5220;43.192;23.284;2022-09-23T02:21:28;97232.75;;;10.30;69.34
10348;BME280;5220;43.192;23.284;2022-09-23T02:24:02;97227.97;;;10.37;67.45
10348;BME280;5220;43.192;23.284;2022-09-23T02:26:36;97223.47;;;10.39;68.26
10348;BME280;5220;43.192;23.284;2022-09-23T02:29:09;97230.03;;;10.32;67.89
10348;BME280;5220;43.192;23.284;2022-09-23T02:31:41;97240.84;;;10.38;68.01
10348;BME280;5220;43.192;23.284;2022-09-23T02:34:30;97240.44;;;10.44;67.36
10348;BME280;5220;43.192;23.284;2022-09-23T02:37:06;97237.53;;;10.49;67.52
10348;BME280;5220;43.192;23.284;2022-09-23T02:39:41;97241.34;;;10.43;66.49
10348;BME280;5220;43.192;23.284;2022-09-23T02:42:17;97235.22;;;10.19;66.48
10348;BME280;5220;43.192;23.284;2022-09-23T02:44:49;97238.56;;;10.21;67.34
10348;BME280;5220;43.192;23.284;2022-09-23T02:47:17;97241.66;;;10.13;66.61
10348;BME280;5220;43.192;23.284;2022-09-23T02:49:47;97244.97;;;10.15;67.12
10348;BME280;5220;43.192;23.284;2022-09-23T02:52:14;97244.69;;;10.20;67.29
10348;BME280;5220;43.192;23.284;2022-09-23T02:54:43;97250.41;;;10.25;66.84
10348;BME280;5220;43.192;23.284;2022-09-23T02:57:09;97245.75;;;10.03;66.73
10348;BME280;5220;43.192;23.284;2022-09-23T02:59:37;97253.03;;;9.98;66.46
10348;BME280;5220;43.192;23.284;2022-09-23T03:02:18;97259.09;;;9.99;66.77
10348;BME280;5220;43.192;23.284;2022-09-23T03:05:00;97251.41;;;10.10;66.99
10348;BME280;5220;43.192;23.284;2022-09-23T03:07:37;97260.88;;;10.11;66.28
10348;BME280;5220;43.192;23.284;2022-09-23T03:10:15;97255.28;;;10.17;66.46
10348;BME280;5220;43.192;23.284;2022-09-23T03:12:51;97264.34;;;10.24;65.97
10348;BME280;5220;43.192;23.284;2022-09-23T03:15:32;97266.84;;;10.25;65.96
10348;BME280;5220;43.192;23.284;2022-09-23T03:18:08;97254.47;;;10.29;66.26
10348;BME280;5220;43.192;23.284;2022-09-23T03:20:41;97259.59;;;10.04;66.12
10348;BME280;5220;43.192;23.284;2022-09-23T03:23:12;97258.94;;;10.14;65.76
10348;BME280;5220;43.192;23.284;2022-09-23T03:25:44;97266.22;;;10.22;66.49
10348;BME280;5220;43.192;23.284;2022-09-23T03:28:14;97259.88;;;10.26;66.35
10348;BME280;5220;43.192;23.284;2022-09-23T03:30:43;97261.56;;;10.27;66.48
10348;BME280;5220;43.192;23.284;2022-09-23T03:33:12;97266.75;;;10.27;65.67
10348;BME280;5220;43.192;23.284;2022-09-23T03:35:48;97264.84;;;10.16;65.40
10348;BME280;5220;43.192;23.284;2022-09-23T03:38:38;97263.13;;;10.03;65.80
10348;BME280;5220;43.192;23.284;2022-09-23T03:41:08;97261.88;;;9.96;66.23
10348;BME280;5220;43.192;23.284;2022-09-23T03:43:36;97265.31;;;10.09;65.79
10348;BME280;5220;43.192;23.284;2022-09-23T03:46:03;97267.91;;;10.09;65.75
10348;BME280;5220;43.192;23.284;2022-09-23T03:48:31;97270.25;;;10.13;66.15
10348;BME280;5220;43.192;23.284;2022-09-23T03:51:00;97270.78;;;10.18;65.98
10348;BME280;5220;43.192;23.284;2022-09-23T03:53:30;97275.34;;;10.15;65.54
10348;BME280;5220;43.192;23.284;2022-09-23T03:55:56;97271.47;;;10.08;65.29
10348;BME280;5220;43.192;23.284;2022-09-23T03:58:23;97274.69;;;10.11;65.69
10348;BME280;5220;43.192;23.284;2022-09-23T04:00:50;97267.41;;;10.04;65.37
10348;BME280;5220;43.192;23.284;2022-09-23T04:03:18;97273.84;;;9.98;66.00
10348;BME280;5220;43.192;23.284;2022-09-23T04:05:47;97282.03;;;9.92;65.59
10348;BME280;5220;43.192;23.284;2022-09-23T04:08:15;97274.88;;;9.96;66.42
10348;BME280;5220;43.192;23.284;2022-09-23T04:10:41;97278.19;;;9.98;66.06
10348;BME280;5220;43.192;23.284;2022-09-23T04:13:08;97277.47;;;9.96;66.38
10348;BME280;5220;43.192;23.284;2022-09-23T04:15:35;97281.75;;;9.70;66.63
10348;BME280;5220;43.192;23.284;2022-09-23T04:18:30;97277.41;;;9.70;67.02
10348;BME280;5220;43.192;23.284;2022-09-23T04:24:14;97290.34;;;9.44;67.33
10348;BME280;5220;43.192;23.284;2022-09-23T04:26:43;97284.78;;;9.50;67.71
10348;BME280;5220;43.192;23.284;2022-09-23T04:29:10;97288.25;;;9.63;67.25
10348;BME280;5220;43.192;23.284;2022-09-23T04:31:37;97288.22;;;9.50;67.53
10348;BME280;5220;43.192;23.284;2022-09-23T04:34:04;97292.63;;;9.36;68.17
10348;BME280;5220;43.192;23.284;2022-09-23T04:36:31;97302.53;;;9.29;68.01
10348;BME280;5220;43.192;23.284;2022-09-23T04:38:58;97297.16;;;9.32;68.26
10348;BME280;5220;43.192;23.284;2022-09-23T04:41:26;97288.78;;;9.41;68.24
10348;BME280;5220;43.192;23.284;2022-09-23T04:43:52;97296.59;;;9.41;68.03
10348;BME280;5220;43.192;23.284;2022-09-23T04:46:19;97298.78;;;9.47;67.89
10348;BME280;5220;43.192;23.284;2022-09-23T04:48:46;97298.06;;;9.45;68.39
10348;BME280;5220;43.192;23.284;2022-09-23T04:51:14;97299.75;;;9.46;68.16
10348;BME280;5220;43.192;23.284;2022-09-23T04:53:43;97302.94;;;9.50;68.20
10348;BME280;5220;43.192;23.284;2022-09-23T04:56:12;97302.47;;;9.57;67.71
10348;BME280;5220;43.192;23.284;2022-09-23T04:58:41;97310.66;;;9.51;68.02
10348;BME280;5220;43.192;23.284;2022-09-23T05:01:09;97305.22;;;9.42;68.34
10348;BME280;5220;43.192;23.284;2022-09-23T05:03:37;97305.66;;;9.48;67.97
10348;BME280;5220;43.192;23.284;2022-09-23T05:06:04;97306.84;;;9.57;68.08
10348;BME280;5220;43.192;23.284;2022-09-23T05:08:32;97306.38;;;9.50;68.63
10348;BME280;5220;43.192;23.284;2022-09-23T05:10:59;97306.31;;;9.38;69.50
10348;BME280;5220;43.192;23.284;2022-09-23T05:13:26;97304.88;;;9.34;69.21
10348;BME280;5220;43.192;23.284;2022-09-23T05:15:59;97306.38;;;9.50;69.18
10348;BME280;5220;43.192;23.284;2022-09-23T05:18:26;97301.56;;;9.44;69.91
10348;BME280;5220;43.192;23.284;2022-09-23T05:20:53;97305.28;;;9.54;69.85
10348;BME280;5220;43.192;23.284;2022-09-23T05:23:20;97307.63;;;9.71;69.46
10348;BME280;5220;43.192;23.284;2022-09-23T05:25:47;97313.19;;;9.80;69.11
10348;BME280;5220;43.192;23.284;2022-09-23T05:28:14;97305.81;;;9.86;69.67
10348;BME280;5220;43.192;23.284;2022-09-23T05:30:44;97315.56;;;9.83;69.48
10348;BME280;5220;43.192;23.284;2022-09-23T05:33:12;97308.66;;;9.96;69.44
10348;BME280;5220;43.192;23.284;2022-09-23T05:35:45;97317.81;;;10.01;69.41
10348;BME280;5220;43.192;23.284;2022-09-23T05:38:13;97320.22;;;10.04;69.75
10348;BME280;5220;43.192;23.284;2022-09-23T05:40:41;97327.16;;;10.18;70.02
10348;BME280;5220;43.192;23.284;2022-09-23T05:43:08;97319.56;;;10.27;69.65
10348;BME280;5220;43.192;23.284;2022-09-23T05:45:34;97323.34;;;10.36;69.77
10348;BME280;5220;43.192;23.284;2022-09-23T05:48:01;97315.00;;;10.44;69.87
10348;BME280;5220;43.192;23.284;2022-09-23T05:50:29;97320.44;;;10.53;69.74
10348;BME280;5220;43.192;23.284;2022-09-23T05:52:56;97320.88;;;10.60;70.04
10348;BME280;5220;43.192;23.284;2022-09-23T05:55:41;97323.59;;;10.71;70.79
10348;BME280;5220;43.192;23.284;2022-09-23T05:58:09;97333.88;;;10.85;70.59
10348;BME280;5220;43.192;23.284;2022-09-23T06:00:37;97321.91;;;10.95;70.69
10348;BME280;5220;43.192;23.284;2022-09-23T06:03:04;97324.72;;;11.05;70.71
10348;BME280;5220;43.192;23.284;2022-09-23T06:05:33;97328.25;;;11.16;70.96
10348;BME280;5220;43.192;23.284;2022-09-23T06:08:00;97326.78;;;11.25;71.14
10348;BME280;5220;43.192;23.284;2022-09-23T06:10:27;97323.44;;;11.36;71.38
10348;BME280;5220;43.192;23.284;2022-09-23T06:12:54;97323.72;;;11.44;71.52
10348;BME280;5220;43.192;23.284;2022-09-23T06:15:21;97318.91;;;11.50;71.91
10348;BME280;5220;43.192;23.284;2022-09-23T06:17:48;97321.78;;;11.58;71.53
10348;BME280;5220;43.192;23.284;2022-09-23T06:20:15;97317.81;;;11.65;71.31
10348;BME280;5220;43.192;23.284;2022-09-23T06:22:44;97325.97;;;11.73;71.23
10348;BME280;5220;43.192;23.284;2022-09-23T06:25:11;97326.94;;;11.83;72.36
10348;BME280;5220;43.192;23.284;2022-09-23T06:27:37;97323.44;;;11.96;72.01
10348;BME280;5220;43.192;23.284;2022-09-23T06:30:05;97316.13;;;12.01;72.25
10348;BME280;5220;43.192;23.284;2022-09-23T06:32:32;97320.56;;;12.11;72.41
10348;BME280;5220;43.192;23.284;2022-09-23T06:34:59;97319.78;;;12.22;71.93
10348;BME280;5220;43.192;23.284;2022-09-23T06:37:26;97322.63;;;12.30;71.52
10348;BME280;5220;43.192;23.284;2022-09-23T06:39:56;97326.84;;;12.44;70.47
10348;BME280;5220;43.192;23.284;2022-09-23T06:42:23;97323.53;;;12.53;69.50
10348;BME280;5220;43.192;23.284;2022-09-23T06:44:49;97324.63;;;12.61;68.06
10348;BME280;5220;43.192;23.284;2022-09-23T06:47:16;97328.06;;;12.62;65.25
10348;BME280;5220;43.192;23.284;2022-09-23T06:49:43;97326.09;;;12.76;63.52
10348;BME280;5220;43.192;23.284;2022-09-23T06:52:10;97327.28;;;12.83;61.09
10348;BME280;5220;43.192;23.284;2022-09-23T06:54:43;97328.94;;;12.95;61.58
10348;BME280;5220;43.192;23.284;2022-09-23T06:57:11;97336.91;;;13.05;60.37
10348;BME280;5220;43.192;23.284;2022-09-23T06:59:38;97329.72;;;13.09;60.45
10348;BME280;5220;43.192;23.284;2022-09-23T07:02:07;97338.75;;;13.16;59.34
10348;BME280;5220;43.192;23.284;2022-09-23T07:04:34;97341.59;;;13.24;58.60
10348;BME280;5220;43.192;23.284;2022-09-23T07:07:01;97343.63;;;13.31;59.38
10348;BME280;5220;43.192;23.284;2022-09-23T07:09:28;97340.63;;;13.36;59.87
10348;BME280;5220;43.192;23.284;2022-09-23T07:11:54;97344.09;;;13.48;60.77
10348;BME280;5220;43.192;23.284;2022-09-23T07:14:32;97348.47;;;13.58;59.37
10348;BME280;5220;43.192;23.284;2022-09-23T07:16:58;97340.00;;;13.77;59.69
10348;BME280;5220;43.192;23.284;2022-09-23T07:19:25;97345.81;;;13.80;60.44
10348;BME280;5220;43.192;23.284;2022-09-23T07:21:52;97348.53;;;13.90;59.23
10348;BME280;5220;43.192;23.284;2022-09-23T07:24:18;97345.66;;;13.93;58.59
10348;BME280;5220;43.192;23.284;2022-09-23T07:26:45;97342.94;;;13.94;58.93
10348;BME280;5220;43.192;23.284;2022-09-23T07:29:13;97344.06;;;14.13;58.95
10348;BME280;5220;43.192;23.284;2022-09-23T07:31:42;97343.94;;;14.14;57.51
10348;BME280;5220;43.192;23.284;2022-09-23T07:34:09;97341.16;;;14.27;57.89
10348;BME280;5220;43.192;23.284;2022-09-23T07:36:37;97350.69;;;14.28;57.57
10348;BME280;5220;43.192;23.284;2022-09-23T07:39:05;97356.16;;;14.25;56.38
10348;BME280;5220;43.192;23.284;2022-09-23T07:41:33;97353.53;;;14.36;56.78
10348;BME280;5220;43.192;23.284;2022-09-23T07:44:01;97356.03;;;14.37;55.53
10348;BME280;5220;43.192;23.284;2022-09-23T07:46:30;97349.09;;;14.47;56.63
10348;BME280;5220;43.192;23.284;2022-09-23T07:48:59;97356.47;;;14.42;56.41
10348;BME280;5220;43.192;23.284;2022-09-23T07:51:28;97358.47;;;14.50;56.36
10348;BME280;5220;43.192;23.284;2022-09-23T07:53:55;97352.59;;;14.58;56.31
10348;BME280;5220;43.192;23.284;2022-09-23T07:56:25;97354.00;;;14.62;56.33
10348;BME280;5220;43.192;23.284;2022-09-23T07:58:52;97357.31;;;14.64;56.18
10348;BME280;5220;43.192;23.284;2022-09-23T08:01:26;97356.53;;;14.52;56.72
10348;BME280;5220;43.192;23.284;2022-09-23T08:03:53;97355.47;;;14.54;55.71
10348;BME280;5220;43.192;23.284;2022-09-23T08:06:21;97358.41;;;14.61;56.32
10348;BME280;5220;43.192;23.284;2022-09-23T08:08:49;97358.78;;;14.77;55.91
10348;BME280;5220;43.192;23.284;2022-09-23T08:11:16;97353.03;;;14.83;55.59
10348;BME280;5220;43.192;23.284;2022-09-23T08:13:43;97356.41;;;14.95;56.06
10348;BME280;5220;43.192;23.284;2022-09-23T08:16:10;97354.53;;;14.97;56.09
10348;BME280;5220;43.192;23.284;2022-09-23T08:18:37;97356.38;;;15.06;55.29
10348;BME280;5220;43.192;23.284;2022-09-23T08:21:04;97355.94;;;15.11;54.23
10348;BME280;5220;43.192;23.284;2022-09-23T08:23:32;97359.03;;;15.16;54.15
10348;BME280;5220;43.192;23.284;2022-09-23T08:26:00;97357.75;;;15.10;53.49
10348;BME280;5220;43.192;23.284;2022-09-23T08:28:27;97358.88;;;15.17;54.13
10348;BME280;5220;43.192;23.284;2022-09-23T08:30:54;97358.19;;;15.15;54.13
10348;BME280;5220;43.192;23.284;2022-09-23T08:33:21;97362.59;;;15.15;54.67
10348;BME280;5220;43.192;23.284;2022-09-23T08:35:49;97361.97;;;15.22;54.85
10348;BME280;5220;43.192;23.284;2022-09-23T08:38:16;97363.22;;;15.28;54.11
10348;BME280;5220;43.192;23.284;2022-09-23T08:40:47;97362.97;;;15.31;54.38
10348;BME280;5220;43.192;23.284;2022-09-23T08:43:20;97367.41;;;15.40;54.10
10348;BME280;5220;43.192;23.284;2022-09-23T08:45:49;97352.38;;;15.42;54.05
10348;BME280;5220;43.192;23.284;2022-09-23T08:48:21;97356.41;;;15.46;52.68
10348;BME280;5220;43.192;23.284;2022-09-23T08:50:53;97360.06;;;15.54;52.51
10348;BME280;5220;43.192;23.284;2022-09-23T08:53:24;97359.41;;;15.62;53.64
10348;BME280;5220;43.192;23.284;2022-09-23T08:55:54;97354.25;;;15.51;53.82
10348;BME280;5220;43.192;23.284;2022-09-23T08:58:31;97358.91;;;15.47;53.99
10348;BME280;5220;43.192;23.284;2022-09-23T09:01:07;97353.78;;;15.46;54.34
10348;BME280;5220;43.192;23.284;2022-09-23T09:03:39;97345.56;;;15.60;54.19
10348;BME280;5220;43.192;23.284;2022-09-23T09:06:10;97346.75;;;15.46;52.20
10348;BME280;5220;43.192;23.284;2022-09-23T09:08:40;97335.44;;;15.46;52.05
10348;BME280;5220;43.192;23.284;2022-09-23T09:11:09;97348.34;;;15.28;53.20
10348;BME280;5220;43.192;23.284;2022-09-23T09:13:43;97341.84;;;15.53;53.03
10348;BME280;5220;43.192;23.284;2022-09-23T09:16:22;97340.22;;;15.62;52.38
10348;BME280;5220;43.192;23.284;2022-09-23T09:18:54;97333.00;;;15.54;51.70
10348;BME280;5220;43.192;23.284;2022-09-23T09:21:30;97334.81;;;15.53;52.48
10348;BME280;5220;43.192;23.284;2022-09-23T09:24:07;97342.25;;;15.58;52.47
10348;BME280;5220;43.192;23.284;2022-09-23T09:26:43;97344.38;;;15.74;52.43
10348;BME280;5220;43.192;23.284;2022-09-23T09:29:11;97339.72;;;15.87;52.68
10348;BME280;5220;43.192;23.284;2022-09-23T09:31:41;97337.97;;;15.97;52.27
10348;BME280;5220;43.192;23.284;2022-09-23T09:34:13;97346.22;;;15.92;50.34
10348;BME280;5220;43.192;23.284;2022-09-23T09:36:45;97343.47;;;15.94;49.82
10348;BME280;5220;43.192;23.284;2022-09-23T09:39:15;97343.31;;;15.95;50.48
10348;BME280;5220;43.192;23.284;2022-09-23T09:41:48;97340.84;;;15.94;51.62
10348;BME280;5220;43.192;23.284;2022-09-23T09:44:21;97337.94;;;15.87;50.98
10348;BME280;5220;43.192;23.284;2022-09-23T09:46:55;97340.59;;;16.06;50.97
10348;BME280;5220;43.192;23.284;2022-09-23T09:49:31;97337.28;;;16.14;50.98
10348;BME280;5220;43.192;23.284;2022-09-23T09:52:11;97338.66;;;16.18;49.38
10348;BME280;5220;43.192;23.284;2022-09-23T09:54:38;97343.31;;;15.86;52.05
10348;BME280;5220;43.192;23.284;2022-09-23T09:57:15;97354.50;;;15.97;50.68
10348;BME280;5220;43.192;23.284;2022-09-23T09:59:43;97347.34;;;15.99;49.98
10348;BME280;5220;43.192;23.284;2022-09-23T10:02:22;97348.97;;;16.00;51.45
10348;BME280;5220;43.192;23.284;2022-09-23T10:04:56;97353.53;;;15.98;50.65
10348;BME280;5220;43.192;23.284;2022-09-23T10:07:26;97355.50;;;15.96;50.06
10348;BME280;5220;43.192;23.284;2022-09-23T10:09:54;97348.56;;;15.95;49.51
10348;BME280;5220;43.192;23.284;2022-09-23T10:12:23;97348.16;;;15.90;49.65
10348;BME280;5220;43.192;23.284;2022-09-23T10:14:55;97344.56;;;15.91;50.23
10348;BME280;5220;43.192;23.284;2022-09-23T10:17:23;97350.09;;;15.98;50.94
10348;BME280;5220;43.192;23.284;2022-09-23T10:19:57;97347.38;;;16.09;50.33
10348;BME280;5220;43.192;23.284;2022-09-23T10:22:27;97343.47;;;16.03;49.67
10348;BME280;5220;43.192;23.284;2022-09-23T10:25:00;97339.75;;;15.96;49.16
10348;BME280;5220;43.192;23.284;2022-09-23T10:27:31;97345.81;;;15.97;49.53
10348;BME280;5220;43.192;23.284;2022-09-23T10:30:00;97349.00;;;15.91;49.43
10348;BME280;5220;43.192;23.284;2022-09-23T10:32:31;97344.66;;;15.71;48.67
10348;BME280;5220;43.192;23.284;2022-09-23T10:35:13;97341.63;;;15.75;51.08
10348;BME280;5220;43.192;23.284;2022-09-23T10:37:42;97343.81;;;15.70;50.42
10348;BME280;5220;43.192;23.284;2022-09-23T10:40:24;97342.44;;;15.76;50.72
10348;BME280;5220;43.192;23.284;2022-09-23T10:43:18;97336.38;;;15.85;50.85
10348;BME280;5220;43.192;23.284;2022-09-23T10:46:12;97336.00;;;15.89;49.86
10348;BME280;5220;43.192;23.284;2022-09-23T10:49:15;97322.63;;;16.02;48.89
10348;BME280;5220;43.192;23.284;2022-09-23T10:51:49;97321.13;;;16.09;48.41
10348;BME280;5220;43.192;23.284;2022-09-23T10:54:26;97321.94;;;16.19;48.21
10348;BME280;5220;43.192;23.284;2022-09-23T10:56:58;97316.56;;;16.21;48.88
10348;BME280;5220;43.192;23.284;2022-09-23T10:59:52;97322.91;;;16.28;48.20
10348;BME280;5220;43.192;23.284;2022-09-23T11:02:38;97322.63;;;16.21;47.75
10348;BME280;5220;43.192;23.284;2022-09-23T11:05:31;97320.03;;;16.31;47.56
10348;BME280;5220;43.192;23.284;2022-09-23T11:08:12;97324.03;;;16.25;49.02
10348;BME280;5220;43.192;23.284;2022-09-23T11:10:56;97312.69;;;16.34;49.00
10348;BME280;5220;43.192;23.284;2022-09-23T11:13:49;97308.41;;;16.43;48.74
10348;BME280;5220;43.192;23.284;2022-09-23T11:16:28;97306.06;;;16.49;48.33
10348;BME280;5220;43.192;23.284;2022-09-23T11:19:19;97299.44;;;16.55;49.08
10348;BME280;5220;43.192;23.284;2022-09-23T11:22:00;97291.53;;;16.74;47.62
10348;BME280;5220;43.192;23.284;2022-09-23T11:24:54;97292.38;;;16.65;47.72
10348;BME280;5220;43.192;23.284;2022-09-23T11:27:37;97290.28;;;16.49;47.14
10348;BME280;5220;43.192;23.284;2022-09-23T11:30:09;97290.03;;;16.62;47.95
10348;BME280;5220;43.192;23.284;2022-09-23T11:33:00;97277.84;;;16.61;46.42
10348;BME280;5220;43.192;23.284;2022-09-23T11:35:41;97277.47;;;16.56;46.10
10348;BME280;5220;43.192;23.284;2022-09-23T11:38:16;97274.66;;;16.48;46.91
10348;BME280;5220;43.192;23.284;2022-09-23T11:40:48;97272.03;;;16.67;47.15
10348;BME280;5220;43.192;23.284;2022-09-23T11:43:21;97272.00;;;16.77;45.91
10348;BME280;5220;43.192;23.284;2022-09-23T11:45:53;97277.41;;;16.75;46.22
10348;BME280;5220;43.192;23.284;2022-09-23T11:48:29;97268.16;;;16.81;46.62
10348;BME280;5220;43.192;23.284;2022-09-23T11:51:00;97266.44;;;16.89;46.77
10348;BME280;5220;43.192;23.284;2022-09-23T11:53:36;97255.16;;;17.06;46.33
10348;BME280;5220;43.192;23.284;2022-09-23T11:56:10;97259.50;;;16.98;45.31
10348;BME280;5220;43.192;23.284;2022-09-23T11:58:45;97257.00;;;17.06;46.71
10348;BME280;5220;43.192;23.284;2022-09-23T12:01:19;97253.09;;;17.10;47.02
10348;BME280;5220;43.192;23.284;2022-09-23T12:03:56;97253.19;;;17.18;46.88
10348;BME280;5220;43.192;23.284;2022-09-23T12:06:28;97246.06;;;17.28;45.59
10348;BME280;5220;43.192;23.284;2022-09-23T12:09:00;97244.97;;;17.31;45.56
10348;BME280;5220;43.192;23.284;2022-09-23T12:11:35;97254.25;;;17.25;44.98
10348;BME280;5220;43.192;23.284;2022-09-23T12:14:11;97249.75;;;17.17;45.31
10348;BME280;5220;43.192;23.284;2022-09-23T12:16:50;97245.03;;;17.21;45.76
10348;BME280;5220;43.192;23.284;2022-09-23T12:19:41;97239.50;;;17.14;45.88
10348;BME280;5220;43.192;23.284;2022-09-23T12:22:27;97242.81;;;17.16;45.25
10348;BME280;5220;43.192;23.284;2022-09-23T12:25:08;97243.69;;;17.07;47.45
10348;BME280;5220;43.192;23.284;2022-09-23T12:27:42;97240.50;;;16.67;47.25
10348;BME280;5220;43.192;23.284;2022-09-23T12:30:13;97246.53;;;16.87;47.68
10348;BME280;5220;43.192;23.284;2022-09-23T12:32:42;97240.84;;;16.91;47.90
10348;BME280;5220;43.192;23.284;2022-09-23T12:35:30;97244.56;;;16.98;47.39
10348;BME280;5220;43.192;23.284;2022-09-23T12:37:58;97241.94;;;16.98;48.23
10348;BME280;5220;43.192;23.284;2022-09-23T12:40:30;97240.22;;;17.07;46.99
10348;BME280;5220;43.192;23.284;2022-09-23T12:42:59;97238.97;;;17.11;46.75
10348;BME280;5220;43.192;23.284;2022-09-23T12:45:37;97240.97;;;16.99;44.57
10348;BME280;5220;43.192;23.284;2022-09-23T12:48:26;97234.00;;;17.08;45.32
10348;BME280;5220;43.192;23.284;2022-09-23T12:50:56;97231.72;;;16.95;45.72
10348;BME280;5220;43.192;23.284;2022-09-23T12:53:57;97229.72;;;17.07;45.62
10348;BME280;5220;43.192;23.284;2022-09-23T12:59:58;97218.19;;;17.17;44.45
10348;BME280;5220;43.192;23.284;2022-09-23T13:02:34;97210.44;;;17.16;44.69
10348;BME280;5220;43.192;23.284;2022-09-23T13:05:18;97212.34;;;17.24;46.05
10348;BME280;5220;43.192;23.284;2022-09-23T13:08:07;97203.03;;;17.29;45.58
10348;BME280;5220;43.192;23.284;2022-09-23T13:10:41;97204.47;;;17.41;45.42
10348;BME280;5220;43.192;23.284;2022-09-23T13:13:19;97206.75;;;17.36;46.13
10348;BME280;5220;43.192;23.284;2022-09-23T13:15:52;97208.25;;;17.39;45.39
10348;BME280;5220;43.192;23.284;2022-09-23T13:18:23;97211.59;;;17.31;44.98
10348;BME280;5220;43.192;23.284;2022-09-23T13:20:52;97217.44;;;17.25;45.75
10348;BME280;5220;43.192;23.284;2022-09-23T13:23:24;97217.09;;;17.38;44.96
10348;BME280;5220;43.192;23.284;2022-09-23T13:25:53;97216.06;;;17.31;45.13
10348;BME280;5220;43.192;23.284;2022-09-23T13:28:32;97211.31;;;17.34;44.97
10348;BME280;5220;43.192;23.284;2022-09-23T13:31:03;97216.38;;;17.45;45.12
10348;BME280;5220;43.192;23.284;2022-09-23T13:33:36;97202.91;;;17.58;45.74
10348;BME280;5220;43.192;23.284;2022-09-23T13:36:11;97211.25;;;17.71;46.02
10348;BME280;5220;43.192;23.284;2022-09-23T13:38:39;97210.13;;;17.56;43.85
10348;BME280;5220;43.192;23.284;2022-09-23T13:41:13;97210.19;;;17.64;43.34
10348;BME280;5220;43.192;23.284;2022-09-23T13:43:46;97207.94;;;17.69;43.41